Time;durP1;ratioP1;P1;durP2;ratioP2;P2;SDS_P1;SDS_P2;PMS_P1;PMS_P2;Temp;Humidity;BMP_temperature;BMP_pressure;BME280_temperature;BME280_humidity;BME280_pressure;Samples;Min_cycle;Max_cycle;Signal;HPM_P1;HPM_P2
2022/01/07 00:00:42;;;;;;;6.53;4.43;;;;;;;-4.00;83.85;100044.66;4932009;29;20226;-82
2022/01/07 00:03:14;;;;;;;6.23;4.57;;;;;;;-3.95;83.58;100063.44;4950741;23;20237;-82
2022/01/07 00:05:44;;;;;;;5.73;4.13;;;;;;;-4.02;83.66;100052.63;4934326;29;20637;-82
2022/01/07 00:08:13;;;;;;;6.43;3.90;;;;;;;-4.05;83.49;100046.78;4949708;29;20236;-82
2022/01/07 00:10:42;;;;;;;3.77;3.17;;;;;;;-4.13;83.55;100046.53;4936928;29;20233;-83
2022/01/07 00:13:09;;;;;;;3.93;3.30;;;;;;;-4.09;83.81;100058.44;4920424;29;20311;-81
2022/01/07 00:15:36;;;;;;;3.80;2.60;;;;;;;-4.13;83.73;100046.53;4968628;29;20217;-83
2022/01/07 00:18:06;;;;;;;4.23;2.57;;;;;;;-4.21;84.12;100043.66;4952619;29;20208;-82
2022/01/07 00:20:37;;;;;;;5.00;2.60;;;;;;;-4.33;84.10;100034.94;4951049;29;20299;-82
2022/01/07 00:23:04;;;;;;;3.70;3.20;;;;;;;-4.27;83.87;100050.19;4967032;28;20272;-82
2022/01/07 00:25:32;;;;;;;5.30;3.60;;;;;;;-4.34;84.38;100050.78;4953061;29;20203;-82
2022/01/07 00:28:00;;;;;;;5.47;3.23;;;;;;;-4.29;84.17;100054.69;4965032;28;20224;-82
2022/01/07 00:30:28;;;;;;;5.57;4.23;;;;;;;-4.28;84.18;100053.75;4966597;28;20291;-82
2022/01/07 00:32:55;;;;;;;5.13;4.00;;;;;;;-4.16;83.96;100067.72;4933260;29;20232;-83
2022/01/07 00:35:25;;;;;;;6.40;4.50;;;;;;;-4.07;84.42;100061.78;4947385;28;20547;-82
2022/01/07 00:38:00;;;;;;;6.63;4.90;;;;;;;-3.98;84.69;100058.47;4954915;29;20208;-87
2022/01/07 00:40:33;;;;;;;6.73;4.50;;;;;;;-4.01;84.37;100064.75;4941765;23;20226;-82
2022/01/07 00:43:42;;;;;;;6.87;4.50;;;;;;;-4.04;84.84;100064.16;4921250;29;20229;-82
2022/01/07 00:46:15;;;;;;;6.40;4.67;;;;;;;-4.01;85.15;100061.28;4897994;29;20253;-81
2022/01/07 00:48:45;;;;;;;5.33;4.23;;;;;;;-4.04;85.79;100043.22;5136747;23;20261;-82
2022/01/07 00:51:21;;;;;;;7.63;4.80;;;;;;;-4.00;85.93;100052.50;4926973;23;20304;-82
2022/01/07 00:54:03;;;;;;;7.40;4.80;;;;;;;-4.09;85.42;100042.72;5116877;23;20274;-82
2022/01/07 00:56:48;;;;;;;6.83;4.97;;;;;;;-3.97;85.59;100060.13;4972452;23;20239;-82
2022/01/07 01:00:15;;;;;;;18.97;11.90;;;;;;;-4.02;85.48;100059.66;4972011;29;20220;-82
2022/01/07 01:02:47;;;;;;;15.30;10.13;;;;;;;-4.04;85.39;100061.53;4968596;29;20244;-81
2022/01/07 01:05:18;;;;;;;20.93;13.67;;;;;;;-4.06;85.63;100059.03;4967548;29;20232;-82
2022/01/07 01:07:51;;;;;;;23.83;13.00;;;;;;;-4.07;85.51;100057.38;4956360;23;20337;-82
2022/01/07 01:10:25;;;;;;;15.80;9.60;;;;;;;-4.09;85.97;100056.66;4948293;29;20228;-81
2022/01/07 01:12:58;;;;;;;14.70;9.00;;;;;;;-4.09;85.47;100053.19;4947252;29;20233;-82
2022/01/07 01:15:28;;;;;;;11.50;7.37;;;;;;;-4.14;85.20;100047.47;4970741;23;20239;-83
2022/01/07 01:17:58;;;;;;;10.57;6.27;;;;;;;-4.21;85.18;100047.13;4980565;23;20253;-81
2022/01/07 01:20:36;;;;;;;8.33;5.70;;;;;;;-4.33;85.57;100026.28;4949356;23;20249;-82
2022/01/07 01:23:06;;;;;;;7.03;5.13;;;;;;;-4.32;85.52;100036.63;4948667;29;20190;-84
2022/01/07 01:25:35;;;;;;;7.70;5.10;;;;;;;-4.27;85.83;100037.13;4947082;29;20190;-82
2022/01/07 01:28:05;;;;;;;8.30;5.43;;;;;;;-4.31;85.94;100027.84;4948428;29;20225;-83
2022/01/07 01:30:34;;;;;;;7.07;4.37;;;;;;;-4.30;86.00;100031.28;4952189;23;20556;-83
2022/01/07 01:33:04;;;;;;;6.13;4.20;;;;;;;-4.24;86.08;100036.03;4948250;29;20217;-82
2022/01/07 01:35:37;;;;;;;8.40;4.37;;;;;;;-4.15;86.32;100043.19;4948404;29;20229;-82
2022/01/07 01:38:07;;;;;;;4.90;4.10;;;;;;;-4.21;86.50;100028.81;4946992;29;20229;-83
2022/01/07 01:40:59;;;;;;;6.13;3.83;;;;;;;-4.13;86.22;100042.13;4953248;23;20714;-82
2022/01/07 01:43:30;;;;;;;5.57;3.67;;;;;;;-4.15;86.44;100046.63;4948969;29;20301;-82
2022/01/07 01:46:04;;;;;;;6.03;4.40;;;;;;;-4.20;86.13;100055.81;4945423;29;20237;-82
2022/01/07 01:48:37;;;;;;;6.40;3.83;;;;;;;-4.27;85.58;100051.97;4950489;29;20641;-82
2022/01/07 01:51:06;;;;;;;4.80;3.57;;;;;;;-4.35;86.00;100042.09;4949570;29;20638;-83
2022/01/07 01:53:34;;;;;;;6.13;3.83;;;;;;;-4.42;85.52;100043.50;4933895;29;20189;-89
2022/01/07 01:56:29;;;;;;;7.53;4.03;;;;;;;-4.35;85.65;100062.19;4958335;23;20602;-82
2022/01/07 01:59:00;;;;;;;5.07;3.67;;;;;;;-4.34;85.66;100064.69;4950074;29;20230;-82
2022/01/07 02:01:53;;;;;;;4.23;3.83;;;;;;;-4.35;86.03;100060.41;4951133;29;20240;-82
2022/01/07 02:04:23;;;;;;;5.90;3.77;;;;;;;-4.34;85.99;100053.41;4945264;29;20229;-83
2022/01/07 02:07:04;;;;;;;5.23;3.80;;;;;;;-4.30;85.39;100057.44;4948525;29;20229;-83
2022/01/07 02:09:35;;;;;;;6.50;3.90;;;;;;;-4.39;85.34;100035.44;4948956;29;20237;-82
2022/01/07 02:12:15;;;;;;;5.80;3.73;;;;;;;-4.37;85.00;100049.22;4950442;29;20223;-85
2022/01/07 02:14:56;;;;;;;4.93;3.93;;;;;;;-4.38;85.16;100057.16;4951966;29;20204;-82
2022/01/07 02:17:30;;;;;;;4.43;3.80;;;;;;;-4.43;85.22;100056.69;5034609;23;20253;-87
2022/01/07 02:20:01;;;;;;;5.57;3.90;;;;;;;-4.35;85.32;100062.19;4946747;29;20236;-84
2022/01/07 02:22:35;;;;;;;6.10;3.57;;;;;;;-4.47;85.20;100043.84;4948615;29;20253;-82
2022/01/07 02:25:11;;;;;;;5.63;3.80;;;;;;;-4.43;84.83;100045.28;4948942;29;20233;-83
2022/01/07 02:27:41;;;;;;;6.83;3.60;;;;;;;-4.45;84.63;100051.56;4945686;29;20236;-84
2022/01/07 02:30:10;;;;;;;5.57;3.13;;;;;;;-4.56;84.51;100034.06;4947249;29;20658;-81
2022/01/07 02:32:38;;;;;;;6.30;3.30;;;;;;;-4.49;84.49;100042.28;4934069;29;20229;-83
2022/01/07 02:35:08;;;;;;;5.57;3.60;;;;;;;-4.45;84.46;100048.97;4937239;23;20279;-82
2022/01/07 02:37:39;;;;;;;5.67;2.93;;;;;;;-4.56;84.33;100033.22;4930894;29;20236;-85
2022/01/07 02:40:09;;;;;;;5.33;3.63;;;;;;;-4.61;84.00;100027.50;4931258;29;20214;-83
2022/01/07 02:42:38;;;;;;;5.87;3.60;;;;;;;-4.50;83.99;100045.84;4947221;29;20229;-82
2022/01/07 02:45:10;;;;;;;4.90;3.53;;;;;;;-4.51;84.26;100046.78;4947155;29;20225;-82
2022/01/07 02:47:52;;;;;;;5.40;3.80;;;;;;;-4.56;83.68;100038.44;4951813;29;20243;-84
2022/01/07 02:50:37;;;;;;;5.77;4.47;;;;;;;-4.59;84.05;100039.53;4951077;29;20217;-82
2022/01/07 02:53:10;;;;;;;6.57;4.70;;;;;;;-4.72;83.58;100030.94;4951451;29;20608;-83
2022/01/07 02:55:39;;;;;;;5.73;3.93;;;;;;;-4.70;83.94;100041.25;4950522;29;20234;-85
2022/01/07 02:58:09;;;;;;;6.70;4.33;;;;;;;-4.76;83.75;100023.44;4956709;23;20272;-86
2022/01/07 03:00:37;;;;;;;6.03;4.00;;;;;;;-4.80;83.30;100016.72;4933358;29;20238;-82
2022/01/07 03:03:06;;;;;;;5.27;3.93;;;;;;;-4.79;83.50;100024.47;4952133;29;20186;-87
2022/01/07 03:05:33;;;;;;;5.30;3.60;;;;;;;-4.81;83.03;100013.31;4952170;29;20237;-82
2022/01/07 03:08:03;;;;;;;7.90;3.23;;;;;;;-4.88;82.84;100019.91;4952829;29;20237;-83
2022/01/07 03:10:33;;;;;;;3.80;2.90;;;;;;;-5.00;82.80;100008.59;4952126;29;20543;-89
2022/01/07 03:13:03;;;;;;;4.50;3.00;;;;;;;-4.97;82.60;100008.38;4935643;29;20229;-87
2022/01/07 03:15:40;;;;;;;4.10;2.83;;;;;;;-4.97;82.67;100012.75;4952907;29;20237;-83
2022/01/07 03:18:09;;;;;;;4.83;3.77;;;;;;;-4.99;83.21;100018.09;4951863;29;20217;-87
2022/01/07 03:20:40;;;;;;;3.83;2.90;;;;;;;-5.02;83.10;100002.63;4950406;29;20229;-83
2022/01/07 03:23:13;;;;;;;4.30;2.80;;;;;;;-4.92;82.88;100014.09;4950227;29;20222;-86
2022/01/07 03:25:41;;;;;;;4.53;2.73;;;;;;;-4.91;83.27;100012.31;4949535;29;20210;-90
2022/01/07 03:28:10;;;;;;;4.53;2.73;;;;;;;-4.89;82.83;100008.63;4948827;29;20253;-85
2022/01/07 03:30:38;;;;;;;5.30;2.50;;;;;;;-4.92;82.47;100008.84;4950265;29;20220;-83
2022/01/07 03:33:07;;;;;;;5.03;2.60;;;;;;;-4.89;82.48;100013.00;4951683;29;20296;-88
2022/01/07 03:35:49;;;;;;;3.67;2.40;;;;;;;-5.01;82.37;99991.25;4951503;29;20220;-92
2022/01/07 03:38:19;;;;;;;2.57;2.13;;;;;;;-4.93;81.82;100007.19;4950306;29;20233;-95
2022/01/07 03:40:48;;;;;;;4.60;2.70;;;;;;;-4.90;82.01;100011.38;4930753;29;20240;-90
2022/01/07 03:43:17;;;;;;;3.73;2.50;;;;;;;-5.04;81.46;99993.25;4947600;29;20228;-83
2022/01/07 03:45:45;;;;;;;4.03;3.20;;;;;;;-4.95;81.31;100005.66;4947823;29;20225;-85
2022/01/07 03:48:14;;;;;;;5.40;4.40;;;;;;;-4.97;81.51;100004.91;4930982;29;20225;-82
2022/01/07 03:50:45;;;;;;;3.43;2.50;;;;;;;-5.06;80.61;99992.53;4946775;23;20262;-86
2022/01/07 03:53:14;;;;;;;4.13;2.33;;;;;;;-5.06;81.22;99998.59;4923862;23;20220;-88
2022/01/07 03:55:45;;;;;;;3.47;2.30;;;;;;;-5.03;80.81;100006.19;4949421;29;20245;-92
2022/01/07 03:58:13;;;;;;;3.63;2.47;;;;;;;-5.08;80.65;99992.63;4951076;29;20256;-85
2022/01/07 04:00:42;;;;;;;4.27;2.33;;;;;;;-4.97;80.98;100007.53;4950159;29;20229;-87
2022/01/07 04:03:14;;;;;;;3.80;2.27;;;;;;;-4.88;80.66;100017.31;4952612;29;20241;-88
2022/01/07 04:05:42;;;;;;;5.23;2.60;;;;;;;-4.91;80.19;100000.09;4952128;29;20252;-94
2022/01/07 04:08:13;;;;;;;3.37;2.53;;;;;;;-4.82;80.58;100013.41;4949536;28;20245;-87
2022/01/07 04:10:41;;;;;;;3.60;2.40;;;;;;;-4.82;80.03;100008.19;4949527;29;20229;-93
2022/01/07 04:13:16;;;;;;;3.90;2.13;;;;;;;-4.79;79.89;100006.16;4950678;29;20320;-87
2022/01/07 04:15:46;;;;;;;3.63;2.57;;;;;;;-4.83;80.09;99998.66;4950461;29;20197;-86
2022/01/07 04:18:35;;;;;;;4.43;2.67;;;;;;;-4.75;80.48;100002.38;4950652;29;20281;-92
2022/01/07 04:21:03;;;;;;;3.63;2.40;;;;;;;-4.76;80.16;100008.56;4956959;23;20365;-83
2022/01/07 04:23:34;;;;;;;4.67;2.77;;;;;;;-4.86;79.90;99988.44;4915068;29;20670;-85
2022/01/07 04:26:05;;;;;;;3.87;2.60;;;;;;;-4.80;79.77;99993.19;4930159;29;20241;-85
2022/01/07 04:28:45;;;;;;;4.73;2.60;;;;;;;-4.89;79.94;99981.66;4930356;29;20238;-91
2022/01/07 04:31:12;;;;;;;6.17;2.63;;;;;;;-4.81;80.04;99992.41;4930586;29;20241;-92
2022/01/07 04:33:41;;;;;;;3.47;2.53;;;;;;;-4.84;79.92;99994.38;4930582;29;20218;-82
2022/01/07 04:36:08;;;;;;;3.03;2.47;;;;;;;-4.79;79.99;99995.72;4913197;29;20651;-83
2022/01/07 04:38:36;;;;;;;4.17;2.70;;;;;;;-4.72;79.87;100001.34;4929050;29;20230;-85
2022/01/07 04:41:04;;;;;;;3.37;2.47;;;;;;;-4.80;79.52;99991.44;4930286;29;20238;-91
2022/01/07 04:43:31;;;;;;;3.73;2.40;;;;;;;-4.63;80.03;99998.88;4929615;29;20517;-92
2022/01/07 04:45:58;;;;;;;4.40;2.80;;;;;;;-4.72;79.45;99985.66;4929114;29;20293;-84
2022/01/07 04:48:26;;;;;;;6.93;2.63;;;;;;;-4.58;79.37;100001.97;4914333;29;20252;-86
2022/01/07 04:50:57;;;;;;;3.30;2.43;;;;;;;-4.67;79.26;99986.97;4931663;29;20249;-85
2022/01/07 04:53:26;;;;;;;4.40;2.33;;;;;;;-4.62;79.02;99991.88;4930617;29;20186;-83
2022/01/07 04:55:56;;;;;;;3.80;2.50;;;;;;;-4.63;78.50;99991.03;4929802;29;20237;-82
2022/01/07 04:58:25;;;;;;;4.63;2.73;;;;;;;-4.74;78.28;99987.53;4931248;29;20225;-83
2022/01/07 05:00:53;;;;;;;4.70;2.63;;;;;;;-4.76;78.11;99986.81;4929932;29;20230;-85
2022/01/07 05:03:21;;;;;;;5.37;3.17;;;;;;;-4.72;78.50;99990.88;4931112;29;20230;-86
2022/01/07 05:06:01;;;;;;;4.70;2.50;;;;;;;-4.88;78.06;99965.03;4931744;29;20218;-84
2022/01/07 05:08:33;;;;;;;4.67;2.30;;;;;;;-4.82;78.51;99979.44;4930865;29;20230;-83
2022/01/07 05:11:07;;;;;;;3.07;2.10;;;;;;;-4.89;77.80;99973.81;4932110;29;20229;-83
2022/01/07 05:13:55;;;;;;;4.10;2.40;;;;;;;-4.92;78.25;99971.44;4932486;29;20229;-82
2022/01/07 05:16:23;;;;;;;5.73;2.60;;;;;;;-5.07;78.66;99946.44;4916394;29;20222;-83
2022/01/07 05:18:50;;;;;;;2.93;2.40;;;;;;;-5.06;79.53;99958.56;4953261;23;20214;-83
2022/01/07 05:21:33;;;;;;;3.83;2.40;;;;;;;-5.10;79.73;99957.94;4960345;23;20236;-82
2022/01/07 05:24:13;;;;;;;6.37;2.60;;;;;;;-5.20;80.36;99953.50;4955420;29;20232;-85
2022/01/07 05:26:40;;;;;;;3.37;2.33;;;;;;;-5.18;79.94;99962.91;4954114;29;20240;-83
2022/01/07 05:29:08;;;;;;;5.80;2.83;;;;;;;-5.30;80.17;99952.50;4953181;29;20324;-83
2022/01/07 05:31:36;;;;;;;3.77;2.50;;;;;;;-5.31;79.94;99959.50;4936707;29;20268;-88
2022/01/07 05:34:03;;;;;;;4.20;2.73;;;;;;;-5.42;80.29;99960.31;4971551;29;20204;-85
2022/01/07 05:36:37;;;;;;;6.00;4.50;;;;;;;-5.30;80.20;99979.47;4971350;29;20185;-83
2022/01/07 05:39:06;;;;;;;5.37;3.77;;;;;;;-5.29;79.91;99970.69;4970840;29;20244;-82
2022/01/07 05:41:39;;;;;;;3.70;2.50;;;;;;;-5.32;79.64;99977.91;4969302;29;20247;-83
2022/01/07 05:44:10;;;;;;;4.43;3.50;;;;;;;-5.26;79.89;99985.28;4970655;29;20213;-88
2022/01/07 05:46:38;;;;;;;3.67;3.10;;;;;;;-5.37;79.55;99970.41;4968585;29;20232;-83
2022/01/07 05:49:08;;;;;;;7.90;4.33;;;;;;;-5.17;79.03;99982.00;4954502;29;20209;-85
2022/01/07 05:51:37;;;;;;;5.20;3.90;;;;;;;-5.17;79.47;99989.84;4970796;29;20241;-83
2022/01/07 05:54:08;;;;;;;7.63;5.00;;;;;;;-5.20;79.07;99988.31;4952934;29;20539;-82
2022/01/07 05:56:57;;;;;;;7.07;6.33;;;;;;;-5.21;78.96;99991.00;4928612;23;20244;-83
2022/01/07 05:59:26;;;;;;;3.87;2.70;;;;;;;-5.24;79.18;99986.03;4951546;29;20225;-83
2022/01/07 06:01:55;;;;;;;3.83;2.23;;;;;;;-5.35;79.50;99977.19;4952983;29;20232;-82
2022/01/07 06:04:24;;;;;;;4.83;2.73;;;;;;;-5.32;79.12;99992.63;4937867;29;20541;-82
2022/01/07 06:06:51;;;;;;;3.17;2.27;;;;;;;-5.35;78.83;99987.63;4972041;29;20217;-82
2022/01/07 06:09:26;;;;;;;4.07;2.77;;;;;;;-5.32;79.06;100002.25;4971438;29;20221;-82
2022/01/07 06:11:59;;;;;;;3.93;2.60;;;;;;;-5.49;78.61;99979.09;4991735;23;20246;-81
2022/01/07 06:14:58;;;;;;;4.93;2.80;;;;;;;-5.40;78.54;100007.16;4959585;23;20240;-82
2022/01/07 06:17:47;;;;;;;4.20;2.40;;;;;;;-5.42;78.47;100009.06;4985529;23;20263;-83
2022/01/07 06:20:33;;;;;;;2.83;2.40;;;;;;;-5.54;78.36;99999.47;4957655;29;20208;-82
2022/01/07 06:22:59;;;;;;;3.33;2.40;;;;;;;-5.54;78.89;100005.53;4981122;23;20300;-82
2022/01/07 06:25:28;;;;;;;7.27;2.00;;;;;;;-5.59;78.89;99985.91;4942812;29;20236;-82
2022/01/07 06:30:28;;;;;;;3.83;2.07;;;;;;;-5.68;79.51;99986.56;4928029;23;20244;-82
2022/01/07 06:32:59;;;;;;;3.43;1.97;;;;;;;-5.71;79.36;99986.81;4967649;23;20229;-82
2022/01/07 06:35:40;;;;;;;4.93;2.13;;;;;;;-5.71;79.22;100000.69;4953117;23;20236;-82
2022/01/07 06:38:31;;;;;;;3.27;2.27;;;;;;;-5.82;79.05;99984.94;4973693;29;20224;-83
2022/01/07 06:41:00;;;;;;;3.10;2.10;;;;;;;-5.80;79.26;99996.94;4949527;23;20296;-82
2022/01/07 06:43:43;;;;;;;3.20;1.97;;;;;;;-5.81;79.53;99986.59;4957466;29;20498;-82
2022/01/07 06:46:24;;;;;;;2.43;1.90;;;;;;;-5.92;79.92;99976.09;4979994;23;20235;-84
2022/01/07 06:48:53;;;;;;;2.17;1.73;;;;;;;-5.89;79.53;99981.13;4973321;29;20225;-82
2022/01/07 06:51:24;;;;;;;2.73;2.10;;;;;;;-5.86;79.57;99997.38;4944076;29;20636;-84
2022/01/07 06:53:56;;;;;;;3.23;1.83;;;;;;;-5.83;79.43;99989.31;4994534;23;20248;-82
2022/01/07 06:56:47;;;;;;;4.23;1.90;;;;;;;-5.87;79.20;100008.78;4941070;28;20225;-82
2022/01/07 06:59:14;;;;;;;3.33;2.10;;;;;;;-5.92;79.54;100012.63;4961498;29;20684;-81
2022/01/07 07:01:47;;;;;;;2.60;2.07;;;;;;;-5.81;78.79;100005.72;4967047;28;20299;-82
2022/01/07 07:04:23;;;;;;;2.73;2.03;;;;;;;-5.83;78.59;100007.59;4966037;28;20233;-82
2022/01/07 07:07:08;;;;;;;3.13;2.23;;;;;;;-5.88;78.65;99996.66;4970559;28;20229;-82
2022/01/07 07:09:41;;;;;;;3.70;2.07;;;;;;;-5.80;78.95;100006.56;4970356;28;20328;-81
2022/01/07 07:12:13;;;;;;;4.40;2.23;;;;;;;-5.77;79.28;100017.59;4969332;28;20280;-82
2022/01/07 07:14:49;;;;;;;3.30;2.30;;;;;;;-5.79;79.05;100014.28;4948085;29;20240;-83
2022/01/07 07:17:44;;;;;;;3.83;2.20;;;;;;;-5.70;78.75;100023.25;4934766;29;20236;-82
2022/01/07 07:20:14;;;;;;;3.13;2.20;;;;;;;-5.64;79.29;100012.34;4868282;23;2279723;-81
2022/01/07 07:22:56;;;;;;;3.47;2.20;;;;;;;-5.56;79.12;100011.84;4950815;29;20236;-80
2022/01/07 07:25:49;;;;;;;2.73;1.90;;;;;;;-5.46;78.96;100018.88;4950842;29;20293;-83
2022/01/07 07:28:20;;;;;;;2.07;1.67;;;;;;;-5.38;78.75;100016.59;4952036;29;20245;-82
2022/01/07 07:30:48;;;;;;;2.30;1.90;;;;;;;-5.32;78.58;100002.25;4963781;23;20240;-83
2022/01/07 07:33:43;;;;;;;1.77;1.53;;;;;;;-5.19;78.19;100008.25;4955224;29;20224;-81
2022/01/07 07:36:27;;;;;;;6.60;2.13;;;;;;;-5.09;78.17;99995.38;4956570;29;20233;-82
2022/01/07 07:39:08;;;;;;;3.33;1.80;;;;;;;-5.00;78.27;99997.31;4969122;29;20326;-81
2022/01/07 07:41:59;;;;;;;2.10;1.80;;;;;;;-4.86;77.84;100002.34;4978205;23;20237;-82
2022/01/07 07:44:50;;;;;;;2.37;1.60;;;;;;;-4.70;77.16;100002.88;4963909;29;20493;-81
2022/01/07 07:47:52;;;;;;;2.87;1.70;;;;;;;-4.61;77.04;99996.97;4978108;29;20188;-80
2022/01/07 07:50:27;;;;;;;2.60;1.67;;;;;;;-4.47;76.74;99999.38;4960454;29;20232;-81
2022/01/07 07:53:11;;;;;;;3.60;1.67;;;;;;;-4.45;76.46;99984.41;4975980;29;20232;-81
2022/01/07 07:56:01;;;;;;;2.70;1.80;;;;;;;-4.42;76.28;99975.50;4996822;23;20232;-81
2022/01/07 07:58:37;;;;;;;2.83;1.37;;;;;;;-4.36;75.51;99964.56;4975263;29;20590;-80
2022/01/07 08:01:42;;;;;;;2.20;1.60;;;;;;;-4.22;74.65;99963.50;4976018;29;20233;-82
2022/01/07 08:04:39;;;;;;;2.07;1.57;;;;;;;-3.99;74.39;99986.13;4983468;23;20208;-80
2022/01/07 08:07:16;;;;;;;2.60;1.70;;;;;;;-3.92;74.11;99984.72;4975827;29;20196;-80
2022/01/07 08:10:12;;;;;;;3.27;1.60;;;;;;;-3.85;73.56;99979.81;4983502;23;20279;-81
2022/01/07 08:16:07;;;;;;;2.47;1.43;;;;;;;-3.68;72.63;99969.69;4964042;23;20218;-80
2022/01/07 08:19:06;;;;;;;2.37;1.43;;;;;;;-3.60;72.58;99964.69;4969839;23;20235;-81
2022/01/07 08:22:18;;;;;;;2.07;1.50;;;;;;;-3.49;72.29;99963.81;4991104;23;20211;-83
2022/01/07 08:25:39;;;;;;;2.87;1.70;;;;;;;-3.50;72.14;99938.59;4979036;23;20335;-81
2022/01/07 08:28:35;;;;;;;4.50;1.77;;;;;;;-3.26;72.01;99970.66;4989562;23;20225;-80
2022/01/07 08:34:54;;;;;;;3.53;2.03;;;;;;;-2.97;71.31;99963.06;4968419;23;20236;-81
2022/01/07 08:38:12;;;;;;;4.00;1.93;;;;;;;-2.88;71.24;99967.53;4977958;29;20232;-81
2022/01/07 08:41:12;;;;;;;5.43;1.93;;;;;;;-2.77;71.13;99956.19;4971614;23;20264;31
2022/01/07 08:43:55;;;;;;;3.53;2.07;;;;;;;-2.80;70.87;99935.47;4950803;23;20225;-80
2022/01/07 08:46:29;;;;;;;11.90;7.10;;;;;;;-2.67;70.88;99938.72;4951484;23;20284;-81
2022/01/07 08:49:26;;;;;;;4.57;3.60;;;;;;;-2.63;71.04;99928.78;4957791;23;20221;-81
2022/01/07 08:55:10;;;;;;;4.27;2.30;;;;;;;-2.18;71.09;99945.91;4935921;28;20226;-81
2022/01/07 08:57:40;;;;;;;5.53;3.73;;;;;;;-2.09;70.56;99944.28;5015873;23;20229;-81
2022/01/07 09:00:19;;;;;;;4.63;3.37;;;;;;;-2.00;70.53;99930.34;5024539;23;20234;-81
2022/01/07 09:02:56;;;;;;;4.17;2.93;;;;;;;-1.87;70.68;99937.03;5057727;23;20232;-81
2022/01/07 09:05:41;;;;;;;7.03;3.70;;;;;;;-1.71;70.29;99941.78;4959517;29;20237;-81
2022/01/07 09:08:12;;;;;;;7.00;4.00;;;;;;;-1.78;69.95;99917.03;4962333;23;20240;-81
2022/01/07 09:10:47;;;;;;;8.60;3.20;;;;;;;-1.60;69.72;99933.81;4954718;29;20238;-81
2022/01/07 09:13:17;;;;;;;4.03;3.20;;;;;;;-1.57;69.41;99933.53;4955111;29;20178;-81
2022/01/07 09:16:10;;;;;;;6.70;4.07;;;;;;;-1.52;69.32;99926.09;4970031;23;20276;-81
2022/01/07 09:18:45;;;;;;;6.57;4.13;;;;;;;-1.41;69.78;99917.25;4976641;23;20233;-81
2022/01/07 09:21:41;;;;;;;8.80;4.87;;;;;;;-1.29;70.23;99920.56;4936671;23;20248;-81
2022/01/07 09:24:16;;;;;;;6.13;4.17;;;;;;;-1.23;69.91;99917.41;4943835;29;20217;-81
2022/01/07 09:26:53;;;;;;;9.83;4.50;;;;;;;-1.11;69.71;99913.66;4974079;23;20236;-81
2022/01/07 09:29:46;;;;;;;8.03;4.00;;;;;;;-1.04;69.23;99909.53;4960697;29;20313;-81
2022/01/07 09:32:23;;;;;;;9.63;5.03;;;;;;;-0.85;69.33;99903.41;4969487;23;20241;-81
2022/01/07 09:35:30;;;;;;;5.90;4.20;;;;;;;-0.77;68.53;99900.91;4949687;23;20253;-81
2022/01/07 09:38:00;;;;;;;6.97;4.50;;;;;;;-0.69;69.16;99899.22;4939743;23;20241;-81
2022/01/07 09:40:30;;;;;;;9.63;4.50;;;;;;;-0.65;68.21;99882.19;4954124;29;20257;-81
2022/01/07 09:43:46;;;;;;;8.60;6.07;;;;;;;-0.53;68.73;99874.97;4953475;29;20225;-81
2022/01/07 09:46:32;;;;;;;6.43;4.83;;;;;;;-0.41;68.32;99868.53;4985606;23;20240;-81
2022/01/07 09:49:04;;;;;;;9.87;5.03;;;;;;;-0.31;68.21;99864.06;4962819;23;20536;-81
2022/01/07 09:52:06;;;;;;;8.00;4.60;;;;;;;-0.02;66.45;99851.63;4968242;23;20267;-81
2022/01/07 09:54:41;;;;;;;5.43;3.50;;;;;;;0.15;66.58;99851.78;4972411;29;20236;-81
2022/01/07 09:57:31;;;;;;;5.40;3.30;;;;;;;0.33;66.11;99850.84;4962582;23;20233;-80
2022/01/07 10:00:48;;;;;;;3.57;2.20;;;;;;;0.59;65.11;99843.03;4929949;23;20297;-81
2022/01/07 10:03:44;;;;;;;3.33;2.10;;;;;;;0.75;62.14;99826.50;4979712;23;20241;-81
2022/01/07 10:06:46;;;;;;;3.47;1.80;;;;;;;1.04;61.30;99832.34;4970553;29;20233;-80
2022/01/07 10:09:34;;;;;;;2.93;1.60;;;;;;;1.23;59.04;99824.25;4972503;29;20220;-81
2022/01/07 10:12:18;;;;;;;2.00;1.60;;;;;;;1.38;58.94;99829.78;4978442;23;20236;-80
2022/01/07 10:14:46;;;;;;;3.20;1.60;;;;;;;1.37;59.42;99812.28;4941084;29;20196;-80
2022/01/07 10:17:20;;;;;;;1.97;1.60;;;;;;;1.49;58.65;99810.22;5001681;23;20233;-81
2022/01/07 10:20:31;;;;;;;2.40;1.87;;;;;;;1.64;58.40;99812.09;4961546;23;20239;-80
2022/01/07 10:23:08;;;;;;;4.63;2.37;;;;;;;1.62;59.19;99814.06;4967349;23;20250;-80
2022/01/07 10:26:08;;;;;;;2.57;1.90;;;;;;;1.71;60.43;99810.47;4955114;29;20235;-81
2022/01/07 10:28:40;;;;;;;4.07;2.50;;;;;;;1.69;60.20;99798.41;4972193;23;20259;-81
2022/01/07 10:31:33;;;;;;;2.90;2.17;;;;;;;1.81;59.22;99799.78;4946169;23;20248;-80
2022/01/07 10:34:12;;;;;;;5.67;3.83;;;;;;;1.81;59.93;99788.41;4939734;23;20225;-80
2022/01/07 10:36:40;;;;;;;5.03;3.53;;;;;;;1.87;59.22;99782.47;4931612;29;20578;-80
2022/01/07 10:39:41;;;;;;;3.47;2.77;;;;;;;1.92;60.49;99786.28;5059137;23;20273;-79
2022/01/07 10:42:40;;;;;;;3.23;2.20;;;;;;;1.85;59.01;99780.00;4936231;23;20327;-81
2022/01/07 10:45:14;;;;;;;3.23;2.47;;;;;;;1.93;58.80;99785.28;4941619;29;20276;-80
2022/01/07 10:47:54;;;;;;;2.87;1.97;;;;;;;1.83;59.98;99765.28;4950962;29;20244;-81
2022/01/07 10:50:24;;;;;;;2.77;2.10;;;;;;;1.91;58.72;99766.16;4966703;28;20237;-81
2022/01/07 10:53:24;;;;;;;2.63;1.80;;;;;;;2.08;58.33;99767.00;4963210;23;20236;-81
2022/01/07 10:56:09;;;;;;;3.53;1.80;;;;;;;2.06;58.13;99763.69;4947564;29;20259;-81
2022/01/07 10:58:52;;;;;;;4.03;1.87;;;;;;;2.09;59.18;99763.38;5006058;23;20259;-81
2022/01/07 11:01:19;;;;;;;3.03;1.87;;;;;;;2.08;58.95;99753.78;4936457;29;20228;-81
2022/01/07 11:03:54;;;;;;;2.33;1.87;;;;;;;2.12;58.78;99758.59;5045932;23;20261;-81
2022/01/07 11:06:24;;;;;;;3.83;2.47;;;;;;;2.22;58.88;99742.59;4932908;23;20211;-81
2022/01/07 11:09:04;;;;;;;4.03;2.70;;;;;;;2.24;58.37;99745.88;4957870;23;20221;-80
2022/01/07 11:11:50;;;;;;;4.00;3.00;;;;;;;2.32;57.37;99723.91;4951096;29;20650;-80
2022/01/07 11:14:24;;;;;;;3.03;2.33;;;;;;;2.35;57.80;99727.06;4958710;23;20233;-81
2022/01/07 11:17:12;;;;;;;4.43;2.63;;;;;;;2.42;57.08;99711.38;4957719;29;20217;-80
2022/01/07 11:20:20;;;;;;;3.27;2.03;;;;;;;2.40;56.97;99713.34;4961691;23;20253;-81
2022/01/07 11:22:55;;;;;;;3.70;2.40;;;;;;;2.38;57.34;99700.28;4985839;23;20251;-81
2022/01/07 11:26:02;;;;;;;3.93;2.00;;;;;;;2.59;57.50;99713.00;4984570;23;20225;-81
2022/01/07 11:29:00;;;;;;;3.13;1.90;;;;;;;2.67;56.77;99703.25;4957064;23;20242;-81
2022/01/07 11:31:42;;;;;;;3.57;2.10;;;;;;;2.71;55.03;99684.41;4955505;23;20230;-81
2022/01/07 11:34:59;;;;;;;3.13;1.80;;;;;;;2.76;55.26;99687.34;5172808;23;20210;-83
2022/01/07 11:38:13;;;;;;;3.80;1.97;;;;;;;2.88;55.93;99686.84;4953142;23;20273;-81
2022/01/07 11:41:02;;;;;;;3.07;1.67;;;;;;;2.91;53.90;99675.91;4975949;23;20216;-81
2022/01/07 11:43:47;;;;;;;2.00;1.77;;;;;;;3.01;54.52;99683.66;4978785;23;20307;-81
2022/01/07 11:46:31;;;;;;;3.20;2.10;;;;;;;3.09;53.52;99673.03;4991405;23;20231;-81
2022/01/07 11:50:04;;;;;;;3.30;1.90;;;;;;;3.07;53.15;99677.69;4987237;23;20239;-81
2022/01/07 11:53:05;;;;;;;2.43;1.90;;;;;;;3.08;53.39;99674.03;5003691;23;20331;-81
2022/01/07 11:56:05;;;;;;;2.87;1.90;;;;;;;3.19;52.04;99681.59;4991156;23;20264;-81
2022/01/07 11:58:55;;;;;;;3.30;2.07;;;;;;;3.19;53.19;99678.97;4928628;23;20238;-80
2022/01/07 12:01:36;;;;;;;2.57;1.90;;;;;;;3.29;52.52;99676.13;5002280;23;20243;-81
2022/01/07 12:04:43;;;;;;;2.80;1.90;;;;;;;3.33;52.03;99677.41;4986188;23;20231;-81
2022/01/07 12:07:52;;;;;;;3.70;1.90;;;;;;;3.29;52.52;99668.16;4992133;23;20244;-81
2022/01/07 12:10:45;;;;;;;3.03;1.90;;;;;;;3.27;52.31;99667.50;4991502;23;20218;-80
2022/01/07 12:13:16;;;;;;;3.97;2.33;;;;;;;3.36;50.95;99662.00;4964863;28;20207;-80
2022/01/07 12:16:08;;;;;;;5.10;2.40;;;;;;;3.41;50.18;99664.97;4977959;28;20275;-81
2022/01/07 12:18:41;;;;;;;4.23;2.43;;;;;;;3.37;50.65;99654.88;4994758;23;20248;-81
2022/01/07 12:21:11;;;;;;;4.10;2.10;;;;;;;3.38;51.04;99657.38;4990316;28;20235;-81
2022/01/07 12:23:42;;;;;;;2.73;2.03;;;;;;;3.38;50.42;99649.44;4987003;23;20240;-81
2022/01/07 12:26:12;;;;;;;2.37;2.00;;;;;;;3.44;50.58;99646.09;4955499;28;20275;-81
2022/01/07 12:28:45;;;;;;;3.70;2.00;;;;;;;3.50;50.95;99648.03;4979386;23;20224;-81
2022/01/07 12:31:15;;;;;;;3.67;2.33;;;;;;;3.63;50.16;99651.94;5053495;23;20250;-81
2022/01/07 12:33:58;;;;;;;2.53;1.77;;;;;;;3.54;49.29;99641.41;4991032;23;20251;-80
2022/01/07 12:36:41;;;;;;;2.53;1.70;;;;;;;3.54;48.91;99644.06;4988052;23;20247;-81